createdAt,value
2022-07-25T00:04:19.000Z,22.16
2022-07-25T00:09:22.004Z,22.17
2022-07-25T00:14:26.341Z,22.18
2022-07-25T00:19:29.207Z,22.33
2022-07-25T00:24:32.174Z,22.38
2022-07-25T00:29:37.101Z,22.21
2022-07-25T00:34:39.912Z,22.16
2022-07-25T00:39:42.836Z,21.98
2022-07-25T00:44:47.114Z,21.84
2022-07-25T00:49:49.934Z,21.89
2022-07-25T00:54:52.833Z,21.84
2022-07-25T00:59:56.964Z,21.75
2022-07-25T01:04:59.810Z,21.74
2022-07-25T01:10:03.069Z,21.58
2022-07-25T01:15:08.478Z,21.55
2022-07-25T01:20:16.652Z,21.51
2022-07-25T01:25:20.296Z,21.48
2022-07-25T01:30:24.210Z,21.45
2022-07-25T01:35:28.410Z,21.48
2022-07-25T01:40:31.221Z,21.46
2022-07-25T01:45:34.124Z,21.63
2022-07-25T01:50:38.457Z,21.57
2022-07-25T01:55:41.427Z,21.46
2022-07-25T02:00:44.295Z,21.47
2022-07-25T02:05:48.482Z,21.39
2022-07-25T02:10:51.485Z,21.36
2022-07-25T02:15:54.449Z,21.36
2022-07-25T02:20:58.632Z,21.30
2022-07-25T02:26:01.446Z,21.22
2022-07-25T02:31:04.584Z,21.16
2022-07-25T02:36:10.268Z,21.13
2022-07-25T02:41:13.137Z,21.11
2022-07-25T02:46:16.009Z,21.17
2022-07-25T02:51:20.226Z,21.15
2022-07-25T02:56:23.078Z,21.19
2022-07-25T03:01:26.879Z,21.16
2022-07-25T03:06:31.234Z,20.88
2022-07-25T03:11:34.765Z,20.93
2022-07-25T03:16:37.872Z,20.74
2022-07-25T03:21:42.120Z,20.77
2022-07-25T03:26:44.913Z,20.70
2022-07-25T03:31:48.422Z,20.72
2022-07-25T03:36:52.718Z,20.79
2022-07-25T03:41:56.248Z,20.77
2022-07-25T03:46:59.110Z,20.70
2022-07-25T03:52:03.757Z,20.85
2022-07-25T03:57:06.607Z,20.81
2022-07-25T04:02:09.640Z,20.86
2022-07-25T04:07:14.134Z,21.03
2022-07-25T04:12:17.145Z,21.11
2022-07-25T04:17:20.098Z,21.18
2022-07-25T04:22:25.271Z,21.28
2022-07-25T04:27:28.261Z,21.31
2022-07-25T04:32:31.161Z,21.49
2022-07-25T04:37:36.085Z,21.60
2022-07-25T04:42:38.951Z,21.67
2022-07-25T04:47:41.789Z,21.75
2022-07-25T04:52:46.021Z,21.92
2022-07-25T04:57:48.920Z,21.88
2022-07-25T05:02:52.537Z,22.02
2022-07-25T05:07:59.051Z,22.00
2022-07-25T05:13:01.943Z,22.16
2022-07-25T05:18:05.022Z,22.23
2022-07-25T05:23:09.409Z,22.47
2022-07-25T05:28:14.782Z,22.66
2022-07-25T05:33:17.974Z,22.90
2022-07-25T05:38:22.218Z,23.01
2022-07-25T05:43:25.080Z,23.13
2022-07-25T05:48:28.019Z,23.37
2022-07-25T05:53:32.607Z,23.45
2022-07-25T05:58:37.175Z,23.76
2022-07-25T06:03:40.186Z,23.93
2022-07-25T06:08:44.333Z,24.27
2022-07-25T06:13:48.256Z,25.08
2022-07-25T06:18:51.177Z,25.73
2022-07-25T06:23:55.742Z,25.59
2022-07-25T06:28:58.701Z,25.51
2022-07-25T06:34:01.592Z,26.23
2022-07-25T06:39:05.755Z,26.94
2022-07-25T06:44:08.856Z,28.96
2022-07-25T06:49:12.056Z,31.76
2022-07-25T06:54:16.257Z,31.03
2022-07-25T06:59:19.134Z,29.74
2022-07-25T07:04:21.969Z,29.12
2022-07-25T07:09:26.136Z,29.29
2022-07-25T07:14:29.200Z,31.39
2022-07-25T07:19:32.074Z,32.13
2022-07-25T07:24:42.843Z,32.94
2022-07-25T07:29:47.227Z,35.60
2022-07-25T07:34:50.233Z,38.49
2022-07-25T07:39:54.468Z,38.67
2022-07-25T07:44:57.305Z,40.05
2022-07-25T07:50:00.126Z,38.83
2022-07-25T07:55:22.175Z,38.83
2022-07-25T08:00:27.863Z,40.78
2022-07-25T08:05:31.940Z,40.98
2022-07-25T08:10:39.882Z,41.36
2022-07-25T08:15:43.114Z,40.92
2022-07-25T08:20:46.580Z,39.84
2022-07-25T08:25:51.138Z,38.39
2022-07-25T08:30:54.364Z,38.05
2022-07-25T08:35:58.944Z,37.62
2022-07-25T08:41:04.221Z,35.13
2022-07-25T08:46:08.228Z,34.46
2022-07-25T08:51:11.759Z,34.68
2022-07-25T08:56:20.825Z,34.16
2022-07-25T09:01:24.120Z,34.16
2022-07-25T09:06:27.044Z,33.81
2022-07-25T09:11:33.372Z,34.05
2022-07-25T09:16:40.389Z,33.72
2022-07-25T09:21:46.072Z,33.26
2022-07-25T09:26:52.688Z,33.19
2022-07-25T09:31:56.380Z,33.17
2022-07-25T09:36:59.331Z,33.34
2022-07-25T09:42:04.107Z,33.13
2022-07-25T09:47:11.551Z,33.07
2022-07-25T09:52:14.559Z,33.56
2022-07-25T09:57:18.850Z,33.73
2022-07-25T10:02:34.114Z,33.98
2022-07-25T10:07:39.566Z,33.64
2022-07-25T10:12:44.172Z,33.62
2022-07-25T10:17:48.580Z,33.70
2022-07-25T10:22:56.746Z,33.86
2022-07-25T10:28:10.160Z,33.92
2022-07-25T10:33:15.124Z,33.82
2022-07-25T10:38:25.620Z,33.77
2022-07-25T10:43:29.878Z,33.38
2022-07-25T10:48:34.075Z,33.76
2022-07-25T10:53:39.339Z,33.67
2022-07-25T10:58:48.647Z,33.91
2022-07-25T11:03:52.204Z,33.54
2022-07-25T11:08:57.754Z,33.95
2022-07-25T11:14:01.998Z,33.76
2022-07-25T11:19:05.263Z,33.85
2022-07-25T11:24:08.534Z,34.12
2022-07-25T11:29:19.750Z,33.71
2022-07-25T11:34:24.622Z,34.18
2022-07-25T11:39:28.920Z,34.23
2022-07-25T11:44:34.927Z,34.84
2022-07-25T11:49:48.927Z,34.55
2022-07-25T11:54:56.103Z,34.85
2022-07-25T12:00:02.396Z,33.61
2022-07-25T12:05:13.739Z,33.95
2022-07-25T12:10:18.814Z,33.13
2022-07-25T12:15:24.877Z,33.51
2022-07-25T12:20:29.800Z,33.90
2022-07-25T12:25:33.860Z,33.48
2022-07-25T12:30:39.008Z,33.76
2022-07-25T12:35:42.534Z,33.56
2022-07-25T12:40:45.688Z,33.46
2022-07-25T12:45:49.886Z,34.16
2022-07-25T12:50:52.768Z,33.97
2022-07-25T12:55:55.722Z,33.27
2022-07-25T13:01:01.296Z,33.11
2022-07-25T13:06:06.864Z,33.01
2022-07-25T13:11:09.661Z,33.62
2022-07-25T13:16:14.559Z,33.70
2022-07-25T13:21:18.662Z,34.04
2022-07-25T13:26:21.516Z,33.67
2022-07-25T13:31:25.845Z,33.57
2022-07-25T13:36:29.030Z,33.48
2022-07-25T13:41:31.879Z,33.46
2022-07-25T13:46:36.267Z,33.47
2022-07-25T13:51:39.085Z,33.31
2022-07-25T13:56:42.466Z,33.87
2022-07-25T14:01:47.466Z,33.12
2022-07-25T14:06:52.085Z,31.72
2022-07-25T14:11:55.193Z,31.51
2022-07-25T14:16:59.411Z,31.14
2022-07-25T14:22:02.351Z,29.87
2022-07-25T14:27:05.730Z,28.95
2022-07-25T14:32:10.030Z,28.61
2022-07-25T14:37:13.013Z,28.13
2022-07-25T14:42:16.267Z,27.78
2022-07-25T14:47:20.644Z,27.31
2022-07-25T14:52:23.958Z,27.12
2022-07-25T14:57:27.366Z,26.68
2022-07-25T15:02:32.247Z,25.94
2022-07-25T15:07:38.122Z,25.66
2022-07-25T15:12:40.978Z,25.42
2022-07-25T15:17:45.331Z,25.17
2022-07-25T15:22:48.066Z,24.62
2022-07-25T15:27:50.962Z,24.25
2022-07-25T15:32:55.115Z,23.71
2022-07-25T15:37:58.844Z,23.37
2022-07-25T15:43:01.624Z,22.69
2022-07-25T15:48:07.861Z,21.96
2022-07-25T15:53:11.519Z,21.55
2022-07-25T15:58:14.839Z,21.43
2022-07-25T16:03:18.984Z,21.62
2022-07-25T16:08:22.015Z,21.46
2022-07-25T16:13:24.825Z,21.61
2022-07-25T16:18:29.048Z,21.65
2022-07-25T16:23:36.198Z,21.90
2022-07-25T16:28:41.327Z,21.88
2022-07-25T16:33:46.171Z,22.10
2022-07-25T16:38:49.204Z,22.33
2022-07-25T16:43:52.086Z,22.76
2022-07-25T16:48:56.498Z,22.94
2022-07-25T16:53:59.862Z,22.98
2022-07-25T16:59:02.963Z,22.84
2022-07-25T17:04:07.932Z,22.89
2022-07-25T17:09:11.677Z,23.11
2022-07-25T17:14:14.553Z,23.28
2022-07-25T17:19:18.781Z,23.12
2022-07-25T17:24:21.587Z,22.80
2022-07-25T17:29:24.612Z,23.04
2022-07-25T17:34:28.834Z,23.11
2022-07-25T17:39:31.657Z,22.58
2022-07-25T17:44:34.745Z,22.47
2022-07-25T17:49:38.901Z,22.17
2022-07-25T17:54:42.445Z,22.10
2022-07-25T17:59:45.287Z,21.87
2022-07-25T18:04:49.598Z,21.68
2022-07-25T18:09:52.883Z,21.56
2022-07-25T18:14:55.793Z,21.72
2022-07-25T18:19:59.952Z,21.54
2022-07-25T18:25:02.848Z,21.55
2022-07-25T18:30:07.952Z,21.33
2022-07-25T18:35:13.100Z,21.48
2022-07-25T18:40:16.556Z,21.28
2022-07-25T18:45:19.565Z,21.35
2022-07-25T18:50:25.210Z,21.25
2022-07-25T18:55:28.116Z,21.11
2022-07-25T19:00:30.920Z,20.93
2022-07-25T19:05:35.424Z,20.78
2022-07-25T19:10:38.420Z,20.95
2022-07-25T19:15:41.349Z,20.74
2022-07-25T19:20:45.704Z,20.60
2022-07-25T19:25:49.465Z,20.51
2022-07-25T19:30:52.770Z,20.49
2022-07-25T19:35:57.022Z,20.55
2022-07-25T19:41:00.751Z,20.64
2022-07-25T19:46:04.088Z,20.78
2022-07-25T19:51:08.536Z,20.78
2022-07-25T19:56:11.449Z,20.62
2022-07-25T20:01:14.624Z,20.50
2022-07-25T20:06:20.519Z,20.24
2022-07-25T20:11:23.434Z,20.16
2022-07-25T20:16:26.339Z,19.92
2022-07-25T20:21:30.894Z,19.81
2022-07-25T20:26:33.853Z,19.72
2022-07-25T20:31:36.926Z,19.71
2022-07-25T20:36:41.403Z,19.63
2022-07-25T20:41:44.673Z,19.63
2022-07-25T20:46:47.928Z,19.61
2022-07-25T20:51:54.564Z,19.84
2022-07-25T20:56:57.739Z,19.94
2022-07-25T21:02:00.951Z,19.71
2022-07-25T21:07:05.698Z,19.55
2022-07-25T21:12:10.669Z,19.53
2022-07-25T21:17:13.598Z,19.64
2022-07-25T21:22:17.914Z,19.62
2022-07-25T21:27:21.353Z,19.58
2022-07-25T21:32:24.179Z,19.55
2022-07-25T21:37:28.425Z,19.48
2022-07-25T21:42:31.414Z,19.54
2022-07-25T21:47:34.341Z,19.65
2022-07-25T21:52:38.563Z,19.65
2022-07-25T21:57:41.415Z,19.53
2022-07-25T22:02:45.031Z,19.44
2022-07-25T22:07:49.388Z,19.46
2022-07-25T22:12:52.555Z,19.54
2022-07-25T22:17:55.439Z,19.53
2022-07-25T22:23:00.088Z,19.45
2022-07-25T22:28:02.911Z,19.49
2022-07-25T22:33:05.755Z,19.42
2022-07-25T22:38:10.065Z,19.26
2022-07-25T22:43:12.872Z,19.23
2022-07-25T22:48:15.707Z,19.26
2022-07-25T22:53:19.883Z,19.28
2022-07-25T22:58:22.672Z,19.19
2022-07-25T23:03:25.521Z,19.24
2022-07-25T23:08:35.666Z,19.16
2022-07-25T23:13:38.512Z,18.98
2022-07-25T23:18:41.343Z,19.35
2022-07-25T23:23:45.806Z,19.42
2022-07-25T23:28:48.652Z,19.48
2022-07-25T23:33:51.464Z,19.18
2022-07-25T23:38:55.590Z,19.05
2022-07-25T23:44:00.494Z,19.07
2022-07-25T23:49:03.397Z,19.07
2022-07-25T23:54:07.749Z,19.13
2022-07-25T23:59:11.191Z,18.96
